Time;durP1;ratioP1;P1;durP2;ratioP2;P2;SDS_P1;SDS_P2;PMS_P1;PMS_P2;Temp;Humidity;BMP_temperature;BMP_pressure;BME280_temperature;BME280_humidity;BME280_pressure;Samples;Min_cycle;Max_cycle;Signal;HPM_P1;HPM_P2
2023/07/30 00:01:58;;;;;;;17.17;4.72;;;18.10;99.90;;;;;;5112769;27;20050;-78
2023/07/30 00:04:23;;;;;;;19.92;4.70;;;18.10;99.90;;;;;;5103916;27;20375;-78
2023/07/30 00:06:49;;;;;;;21.60;5.05;;;18.10;99.90;;;;;;5112412;27;20050;-78
2023/07/30 00:09:15;;;;;;;24.45;5.82;;;18.10;99.90;;;;;;5096192;27;20225;-82
2023/07/30 00:11:41;;;;;;;24.77;5.38;;;18.10;99.90;;;;;;5102940;27;20067;-79
2023/07/30 00:14:07;;;;;;;22.77;5.50;;;18.10;99.90;;;;;;5111623;27;20077;-84
2023/07/30 00:16:32;;;;;;;16.30;5.07;;;18.20;99.90;;;;;;5099314;27;20042;-78
2023/07/30 00:18:58;;;;;;;20.70;4.55;;;18.10;99.90;;;;;;5113708;27;20051;-80
2023/07/30 00:21:24;;;;;;;21.77;5.50;;;18.10;99.90;;;;;;5106553;27;20043;-78
2023/07/30 00:23:49;;;;;;;19.83;5.53;;;18.20;99.90;;;;;;5093986;27;20054;-78
2023/07/30 00:26:15;;;;;;;19.80;5.38;;;18.20;99.90;;;;;;5113124;27;20451;-82
2023/07/30 00:28:41;;;;;;;19.30;5.45;;;18.20;99.90;;;;;;5112517;27;20512;-78
2023/07/30 00:31:07;;;;;;;22.83;5.22;;;18.20;99.90;;;;;;5083416;27;20081;-80
2023/07/30 00:33:32;;;;;;;24.70;5.25;;;18.20;99.90;;;;;;5113015;27;20508;-80
2023/07/30 00:35:58;;;;;;;19.98;4.95;;;18.20;99.90;;;;;;5133530;27;20051;-81
2023/07/30 00:38:24;;;;;;;23.05;4.90;;;18.20;99.90;;;;;;5099824;27;20606;-82
2023/07/30 00:40:50;;;;;;;19.60;5.20;;;18.30;99.90;;;;;;5113280;27;20047;-79
2023/07/30 00:43:16;;;;;;;27.02;5.28;;;18.30;99.90;;;;;;5104154;27;20047;-79
2023/07/30 00:45:44;;;;;;;18.58;5.28;;;18.30;99.90;;;;;;5120941;27;20184;-82
2023/07/30 00:48:11;;;;;;;21.25;5.40;;;18.30;99.90;;;;;;5083784;27;20035;-78
2023/07/30 00:50:38;;;;;;;23.70;5.53;;;18.30;99.90;;;;;;5087904;27;20076;-83
2023/07/30 00:53:04;;;;;;;21.30;6.10;;;18.30;99.90;;;;;;5105420;27;20508;-78
2023/07/30 00:55:30;;;;;;;18.90;4.88;;;18.30;99.90;;;;;;5073630;27;20046;-79
2023/07/30 00:57:57;;;;;;;18.55;5.05;;;18.40;99.90;;;;;;5082632;27;20397;-78
2023/07/30 01:00:24;;;;;;;24.38;5.30;;;18.30;99.90;;;;;;5110223;27;20394;-80
2023/07/30 01:02:51;;;;;;;19.02;4.90;;;18.40;99.90;;;;;;5084913;27;20057;-78
2023/07/30 01:05:18;;;;;;;20.80;4.97;;;18.40;99.90;;;;;;5083317;27;20047;-81
2023/07/30 01:07:43;;;;;;;19.48;4.95;;;18.40;99.90;;;;;;5082213;27;20054;-81
2023/07/30 01:10:10;;;;;;;19.38;4.68;;;18.40;99.90;;;;;;5083931;27;20047;-84
2023/07/30 01:12:36;;;;;;;22.20;4.80;;;18.30;99.90;;;;;;5086010;27;20054;-81
2023/07/30 01:15:04;;;;;;;30.20;5.85;;;18.30;99.90;;;;;;5107204;27;20614;-82
2023/07/30 01:17:30;;;;;;;19.23;4.65;;;18.30;99.90;;;;;;5101565;27;21128;-82
2023/07/30 01:19:56;;;;;;;20.40;5.18;;;18.30;99.90;;;;;;5089722;27;20072;-80
2023/07/30 01:22:22;;;;;;;22.25;5.20;;;18.30;99.90;;;;;;5069767;27;20039;-80
2023/07/30 01:24:49;;;;;;;25.55;5.07;;;18.20;99.90;;;;;;5089083;27;20050;-80
2023/07/30 01:27:24;;;;;;;18.10;5.10;;;18.20;99.90;;;;;;5088734;27;20047;-81
2023/07/30 01:30:01;;;;;;;24.95;5.28;;;18.20;99.90;;;;;;5093230;27;20386;-80
2023/07/30 01:32:28;;;;;;;23.63;5.18;;;18.20;99.90;;;;;;5102038;27;20081;-79
2023/07/30 01:34:57;;;;;;;19.58;5.10;;;18.20;99.90;;;;;;5071553;27;20054;-79
2023/07/30 01:37:23;;;;;;;26.83;6.00;;;18.20;99.90;;;;;;5085400;27;20046;-78
2023/07/30 01:39:50;;;;;;;24.15;5.18;;;18.20;99.90;;;;;;5085421;27;20255;-82
2023/07/30 01:42:16;;;;;;;20.98;5.35;;;18.20;99.90;;;;;;5103913;27;20174;-82
2023/07/30 01:44:41;;;;;;;23.95;5.22;;;18.20;99.90;;;;;;5081693;27;20049;-79
2023/07/30 01:47:07;;;;;;;20.45;5.20;;;18.20;99.90;;;;;;5081379;27;20694;-82
2023/07/30 01:49:34;;;;;;;23.70;5.05;;;18.10;99.90;;;;;;5098988;27;20066;-81
2023/07/30 01:51:59;;;;;;;22.38;5.57;;;18.10;99.90;;;;;;5099335;27;20051;-83
2023/07/30 01:54:26;;;;;;;19.88;5.35;;;18.10;99.90;;;;;;5098229;27;21080;-82
2023/07/30 01:56:52;;;;;;;24.90;5.07;;;18.10;99.90;;;;;;5083661;27;20039;-83
2023/07/30 01:59:18;;;;;;;24.17;4.93;;;18.20;99.90;;;;;;5096310;27;20042;-84
2023/07/30 02:01:44;;;;;;;23.42;4.68;;;18.10;99.90;;;;;;5101277;27;20043;-82
2023/07/30 02:04:10;;;;;;;21.27;4.75;;;18.10;99.90;;;;;;5096837;27;20057;-79
2023/07/30 02:06:36;;;;;;;13.95;4.07;;;18.10;99.90;;;;;;5100640;27;20220;-82
2023/07/30 02:09:02;;;;;;;14.13;3.72;;;18.10;99.90;;;;;;5108636;27;20046;-79
2023/07/30 02:11:28;;;;;;;11.70;2.85;;;18.10;99.90;;;;;;5117803;27;20451;-78
2023/07/30 02:13:54;;;;;;;11.82;2.72;;;18.10;99.90;;;;;;5096387;27;20043;-77
2023/07/30 02:16:20;;;;;;;6.93;2.17;;;18.10;99.90;;;;;;5090646;27;20199;-78
2023/07/30 02:18:46;;;;;;;11.77;2.50;;;18.10;99.90;;;;;;5096097;27;20142;-80
2023/07/30 02:21:13;;;;;;;9.10;2.25;;;18.10;99.90;;;;;;5079029;27;20054;-78
2023/07/30 02:23:38;;;;;;;7.65;2.22;;;18.10;99.90;;;;;;5100778;27;20541;-83
2023/07/30 02:26:04;;;;;;;10.30;2.22;;;18.20;99.90;;;;;;5097774;27;20054;-78
2023/07/30 02:28:30;;;;;;;10.25;2.08;;;18.20;99.50;;;;;;5086291;27;20046;-83
2023/07/30 02:30:55;;;;;;;8.68;2.00;;;18.20;98.60;;;;;;5099726;27;20501;-80
2023/07/30 02:33:21;;;;;;;8.60;1.73;;;18.20;98.00;;;;;;5097295;27;20057;-78
2023/07/30 02:35:47;;;;;;;9.88;1.90;;;18.20;97.30;;;;;;5083971;27;20604;-82
2023/07/30 02:38:12;;;;;;;10.00;1.95;;;18.20;97.00;;;;;;5097745;27;20054;-82
2023/07/30 02:40:38;;;;;;;10.45;2.08;;;18.20;96.80;;;;;;5099031;27;20046;-78
2023/07/30 02:43:04;;;;;;;9.85;2.20;;;18.20;96.60;;;;;;5094304;27;20139;-82
2023/07/30 02:45:30;;;;;;;5.45;1.73;;;18.20;96.40;;;;;;5080293;27;20043;-83
2023/07/30 02:47:56;;;;;;;6.82;1.77;;;18.20;96.30;;;;;;5098030;27;20077;-81
2023/07/30 02:50:22;;;;;;;7.93;1.70;;;18.10;96.10;;;;;;5097824;27;20049;-80
2023/07/30 02:52:47;;;;;;;6.82;1.77;;;18.10;95.80;;;;;;5095511;27;20074;-81
2023/07/30 02:55:13;;;;;;;7.20;2.00;;;18.10;95.30;;;;;;5094686;27;20074;-81
2023/07/30 02:57:39;;;;;;;7.60;1.70;;;18.10;94.90;;;;;;5095094;27;20600;-80
2023/07/30 03:00:05;;;;;;;8.68;2.05;;;18.10;94.80;;;;;;5068307;27;20749;-78
2023/07/30 03:02:31;;;;;;;6.45;1.50;;;18.10;94.60;;;;;;5095109;27;20042;-81
2023/07/30 03:04:57;;;;;;;7.10;1.77;;;18.10;94.20;;;;;;5092966;27;20073;-82
2023/07/30 03:07:23;;;;;;;11.07;1.60;;;18.00;93.90;;;;;;5095330;27;20970;-83
2023/07/30 03:09:48;;;;;;;8.98;1.73;;;18.00;93.50;;;;;;5078901;27;20641;-82
2023/07/30 03:12:14;;;;;;;10.27;2.22;;;18.60;92.70;;;;;;5094859;27;20050;-82
2023/07/30 03:14:40;;;;;;;8.07;1.95;;;18.00;92.20;;;;;;5104540;27;20049;-81
2023/07/30 03:17:06;;;;;;;7.57;1.90;;;18.00;91.90;;;;;;5099897;27;20043;-81
2023/07/30 03:19:32;;;;;;;5.47;1.50;;;18.00;91.50;;;;;;5073883;27;20183;-82
2023/07/30 03:21:57;;;;;;;9.60;1.80;;;18.00;91.30;;;;;;5100906;27;20039;-79
2023/07/30 03:24:23;;;;;;;6.88;1.80;;;17.90;91.40;;;;;;5085649;27;20138;-82
2023/07/30 03:26:49;;;;;;;11.00;2.53;;;17.90;91.70;;;;;;5117212;27;20051;-82
2023/07/30 03:29:16;;;;;;;8.38;1.92;;;17.90;92.00;;;;;;5119548;27;20456;-83
2023/07/30 03:31:42;;;;;;;11.57;2.42;;;17.90;92.40;;;;;;5096715;27;20532;-81
2023/07/30 03:34:09;;;;;;;8.95;2.58;;;17.90;92.50;;;;;;5100576;27;20462;-79
2023/07/30 03:36:34;;;;;;;10.50;2.17;;;17.90;92.40;;;;;;5100501;27;20227;-80
2023/07/30 03:39:00;;;;;;;11.98;2.40;;;17.80;92.20;;;;;;5085012;27;20798;-83
2023/07/30 03:41:26;;;;;;;13.80;2.63;;;17.80;92.10;;;;;;5083199;27;20050;-82
2023/07/30 03:43:52;;;;;;;11.98;2.35;;;17.80;92.10;;;;;;5080811;27;20047;-79
2023/07/30 03:46:18;;;;;;;11.30;2.38;;;17.80;92.10;;;;;;5097600;27;20043;-81
2023/07/30 03:48:44;;;;;;;10.88;2.45;;;17.80;92.20;;;;;;5095960;27;20088;-81
2023/07/30 03:51:10;;;;;;;10.52;2.00;;;17.80;92.20;;;;;;5095876;27;20157;-79
2023/07/30 03:53:36;;;;;;;9.80;2.63;;;17.80;92.20;;;;;;5096267;27;20389;-80
2023/07/30 03:56:02;;;;;;;11.85;2.72;;;17.90;92.20;;;;;;5079584;27;20046;-82
2023/07/30 03:58:30;;;;;;;13.63;3.10;;;17.90;92.20;;;;;;5086122;27;20504;-81
2023/07/30 04:00:56;;;;;;;11.38;2.50;;;17.80;92.20;;;;;;5087574;27;20528;-79
2023/07/30 04:03:22;;;;;;;11.07;2.30;;;17.90;91.90;;;;;;5078642;27;20157;-83
2023/07/30 04:05:48;;;;;;;9.70;2.50;;;17.90;91.80;;;;;;5081966;27;20487;-81
2023/07/30 04:08:13;;;;;;;10.80;2.15;;;17.90;91.70;;;;;;5083748;27;20043;-81
2023/07/30 04:10:39;;;;;;;11.40;2.15;;;17.90;91.60;;;;;;5101099;27;20174;-79
2023/07/30 04:13:07;;;;;;;9.60;2.25;;;17.90;91.60;;;;;;5082194;27;20046;-81
2023/07/30 04:15:33;;;;;;;10.55;3.10;;;17.90;91.60;;;;;;5068047;27;20740;-81
2023/07/30 04:17:59;;;;;;;9.80;3.35;;;17.90;91.70;;;;;;5097831;27;20395;-78
2023/07/30 04:20:25;;;;;;;10.48;2.63;;;17.90;91.60;;;;;;5066356;27;20074;-79
2023/07/30 04:22:52;;;;;;;10.75;2.50;;;17.90;91.30;;;;;;5078218;27;20054;-80
2023/07/30 04:25:18;;;;;;;13.88;2.63;;;17.90;91.00;;;;;;5100703;27;20059;-84
2023/07/30 04:27:44;;;;;;;14.65;2.75;;;17.90;90.80;;;;;;5068088;27;20050;-86
2023/07/30 04:30:10;;;;;;;10.48;2.58;;;17.90;90.80;;;;;;5063912;27;20051;-82
2023/07/30 04:32:36;;;;;;;10.93;2.70;;;17.90;90.70;;;;;;5100199;27;20062;-87
2023/07/30 04:35:02;;;;;;;11.35;2.88;;;17.90;90.20;;;;;;5066984;27;20043;-84
2023/07/30 04:37:28;;;;;;;8.15;2.47;;;17.90;90.30;;;;;;5072043;27;20047;-83
2023/07/30 04:39:54;;;;;;;9.00;2.20;;;17.90;90.40;;;;;;5104350;27;20045;-87
2023/07/30 04:42:20;;;;;;;15.02;2.85;;;17.90;90.40;;;;;;5087304;27;20413;-83
2023/07/30 04:44:50;;;;;;;12.98;2.85;;;17.90;90.50;;;;;;5103545;27;20047;-76
2023/07/30 04:47:23;;;;;;;11.68;2.83;;;17.90;90.60;;;;;;5081437;27;20054;-79
2023/07/30 04:49:48;;;;;;;10.82;3.00;;;17.90;90.70;;;;;;5102352;27;20047;-83
2023/07/30 04:52:14;;;;;;;10.63;2.60;;;17.90;90.90;;;;;;5090785;27;20091;-82
2023/07/30 04:54:40;;;;;;;12.68;2.30;;;17.90;90.80;;;;;;5085441;27;20124;-83
2023/07/30 04:57:06;;;;;;;11.55;2.25;;;17.90;90.40;;;;;;5102264;27;20307;-82
2023/07/30 04:59:33;;;;;;;10.45;2.70;;;17.90;90.20;;;;;;5073175;27;20051;-86
2023/07/30 05:02:00;;;;;;;8.77;2.50;;;17.90;90.10;;;;;;5105376;27;20047;-87
2023/07/30 05:04:25;;;;;;;12.80;2.83;;;17.90;90.30;;;;;;5087020;27;20043;-86
2023/07/30 05:06:52;;;;;;;9.45;2.47;;;17.90;90.30;;;;;;5087512;27;20614;-83
2023/07/30 05:09:21;;;;;;;10.70;2.80;;;17.90;90.10;;;;;;5102615;27;20044;-82
2023/07/30 05:11:47;;;;;;;8.35;2.47;;;17.90;89.50;;;;;;5121641;27;20082;-84
2023/07/30 05:14:12;;;;;;;10.95;2.60;;;17.90;88.80;;;;;;5120388;27;20046;-83
2023/07/30 05:16:38;;;;;;;11.27;2.50;;;17.90;88.70;;;;;;5102242;27;20058;-82
2023/07/30 05:19:04;;;;;;;11.02;3.28;;;17.90;88.60;;;;;;5085754;27;20055;-86
2023/07/30 05:21:30;;;;;;;9.75;2.58;;;17.90;88.90;;;;;;5100306;27;20519;-83
2023/07/30 05:23:56;;;;;;;8.63;2.58;;;17.90;89.30;;;;;;5090075;27;21400;-81
2023/07/30 05:26:22;;;;;;;13.20;2.53;;;17.80;89.40;;;;;;5101997;27;20133;-84
2023/07/30 05:28:47;;;;;;;9.48;2.60;;;17.80;89.10;;;;;;5117527;27;20178;-83
2023/07/30 05:31:14;;;;;;;9.32;2.42;;;17.80;89.20;;;;;;5083365;27;20055;-75
2023/07/30 05:33:40;;;;;;;11.95;2.70;;;17.80;88.80;;;;;;5115909;27;20038;-75
2023/07/30 05:36:06;;;;;;;9.55;2.55;;;17.80;89.20;;;;;;5082879;27;20047;-75
2023/07/30 05:38:32;;;;;;;11.52;2.70;;;17.80;89.40;;;;;;5096901;27;20085;-74
2023/07/30 05:40:58;;;;;;;6.32;2.50;;;17.80;89.60;;;;;;5110547;27;20485;-76
2023/07/30 05:43:23;;;;;;;15.65;2.90;;;17.80;89.90;;;;;;5090073;27;20051;-76
2023/07/30 05:45:49;;;;;;;8.35;2.10;;;17.80;90.10;;;;;;5109171;27;20519;-78
2023/07/30 05:48:15;;;;;;;10.55;2.50;;;17.80;90.10;;;;;;5108302;27;20463;-80
2023/07/30 05:50:40;;;;;;;8.50;1.90;;;17.90;90.00;;;;;;5107669;27;20038;-79
2023/07/30 05:53:06;;;;;;;10.07;2.38;;;18.00;88.40;;;;;;5108268;27;20509;-78
2023/07/30 05:55:33;;;;;;;8.77;2.30;;;18.10;87.50;;;;;;5088713;27;20078;-82
2023/07/30 05:57:59;;;;;;;9.90;2.78;;;18.10;86.30;;;;;;5097302;27;20055;-80
2023/07/30 06:00:31;;;;;;;8.85;2.28;;;18.20;84.80;;;;;;5092097;27;20058;-78
2023/07/30 06:02:57;;;;;;;14.02;2.28;;;18.20;84.10;;;;;;5090274;27;20322;-81
2023/07/30 06:05:23;;;;;;;11.38;2.30;;;18.20;82.70;;;;;;5090320;27;20350;-79
2023/07/30 06:07:49;;;;;;;9.15;2.22;;;18.20;81.60;;;;;;5107624;27;20182;-78
2023/07/30 06:10:15;;;;;;;12.55;2.72;;;18.20;82.00;;;;;;5093890;27;20043;-85
2023/07/30 06:12:41;;;;;;;12.32;2.55;;;18.20;82.70;;;;;;5106250;27;20050;-75
2023/07/30 06:15:08;;;;;;;11.60;2.58;;;18.10;82.80;;;;;;5080635;27;20051;-74
2023/07/30 06:17:36;;;;;;;8.90;2.38;;;18.10;83.30;;;;;;5082217;27;20055;-74
2023/07/30 06:20:11;;;;;;;10.48;2.55;;;16.70;82.20;;;;;;5074594;27;20169;-71
2023/07/30 06:22:43;;;;;;;8.98;2.63;;;18.00;82.80;;;;;;5093920;27;20050;-72
2023/07/30 06:25:09;;;;;;;16.63;2.85;;;18.00;83.70;;;;;;5089793;27;20047;-73
2023/07/30 06:27:34;;;;;;;10.82;2.22;;;18.00;84.50;;;;;;5108454;27;20066;-72
2023/07/30 06:30:01;;;;;;;7.47;2.28;;;18.00;84.70;;;;;;5087274;27;20170;-72
2023/07/30 06:32:27;;;;;;;12.38;2.40;;;18.00;83.10;;;;;;5107641;27;20493;-72
2023/07/30 06:34:52;;;;;;;10.70;1.92;;;18.10;81.20;;;;;;5088990;27;20492;-72
2023/07/30 06:37:18;;;;;;;11.50;2.40;;;18.10;80.20;;;;;;5090794;27;20073;-72
2023/07/30 06:39:44;;;;;;;9.65;2.10;;;18.30;78.90;;;;;;5106144;27;20112;-74
2023/07/30 06:42:10;;;;;;;9.88;2.72;;;18.30;78.50;;;;;;5124453;27;20059;-76
2023/07/30 06:44:42;;;;;;;8.25;2.40;;;18.40;77.70;;;;;;5102846;27;21293;-78
2023/07/30 06:47:08;;;;;;;10.30;2.35;;;18.40;75.60;;;;;;5094179;27;20157;-73
2023/07/30 06:49:40;;;;;;;8.80;2.40;;;18.40;73.90;;;;;;5107682;27;20133;-73
2023/07/30 06:52:07;;;;;;;10.57;2.50;;;18.40;74.30;;;;;;5096303;27;20596;-73
2023/07/30 06:54:33;;;;;;;12.23;2.42;;;18.30;73.80;;;;;;5088795;27;20481;-73
2023/07/30 06:56:59;;;;;;;10.00;2.58;;;18.20;74.10;;;;;;5105315;27;20111;-73
2023/07/30 06:59:24;;;;;;;10.43;2.50;;;18.20;74.40;;;;;;5099968;27;20058;-76
2023/07/30 07:01:50;;;;;;;10.63;2.45;;;18.20;73.30;;;;;;5077610;27;20071;-75
2023/07/30 07:04:16;;;;;;;12.40;2.95;;;18.20;73.20;;;;;;5086827;27;20051;-74
2023/07/30 07:06:41;;;;;;;12.85;2.38;;;18.40;72.90;;;;;;5088418;27;20046;-74
2023/07/30 07:09:07;;;;;;;11.13;2.42;;;18.30;72.40;;;;;;5088914;27;20066;-72
2023/07/30 07:11:33;;;;;;;12.23;2.67;;;18.50;70.70;;;;;;5104498;27;20088;-74
2023/07/30 07:13:59;;;;;;;8.43;1.98;;;18.70;69.40;;;;;;5096143;27;20069;-77
2023/07/30 07:16:44;;;;;;;8.25;2.72;;;18.70;66.80;;;;;;5089424;27;20043;-75
2023/07/30 07:19:25;;;;;;;10.13;2.50;;;18.80;65.10;;;;;;5122564;27;20185;-76
2023/07/30 07:22:07;;;;;;;9.25;2.42;;;18.80;65.10;;;;;;5121316;27;20059;-76
2023/07/30 07:24:46;;;;;;;7.57;2.58;;;18.90;65.40;;;;;;5104221;27;20058;-78
2023/07/30 07:27:18;;;;;;;7.55;2.17;;;18.90;65.70;;;;;;5089628;27;20057;-72
2023/07/30 07:29:51;;;;;;;8.27;2.55;;;18.80;65.50;;;;;;5088108;27;20076;-73
2023/07/30 07:32:25;;;;;;;11.80;2.22;;;18.80;66.20;;;;;;5107655;27;20494;-73
2023/07/30 07:34:53;;;;;;;12.32;2.60;;;18.80;66.30;;;;;;5087813;27;20055;-75
2023/07/30 07:37:23;;;;;;;8.65;1.88;;;18.70;66.20;;;;;;5124156;27;20511;-73
2023/07/30 07:39:49;;;;;;;7.38;2.13;;;18.70;66.70;;;;;;5086708;27;20078;-73
2023/07/30 07:42:19;;;;;;;9.25;2.10;;;18.60;67.70;;;;;;5105287;27;21282;-74
2023/07/30 07:44:50;;;;;;;10.57;2.20;;;18.50;67.20;;;;;;5063052;27;20126;-73
2023/07/30 07:47:29;;;;;;;13.20;2.75;;;18.50;68.60;;;;;;5104957;27;20043;-73
2023/07/30 07:50:23;;;;;;;9.68;1.85;;;18.40;68.60;;;;;;5105799;27;20050;-73
2023/07/30 07:52:56;;;;;;;14.00;2.63;;;18.40;69.60;;;;;;5120163;27;20439;-74
2023/07/30 07:55:23;;;;;;;9.40;2.20;;;18.40;69.60;;;;;;5092232;27;21000;-73
2023/07/30 07:57:56;;;;;;;7.18;2.25;;;18.30;70.10;;;;;;5106922;27;20473;-74
2023/07/30 08:00:46;;;;;;;15.48;2.63;;;18.40;70.90;;;;;;5084934;27;20130;-72
2023/07/30 08:03:16;;;;;;;10.55;2.70;;;18.20;72.10;;;;;;5096450;27;20054;-74
2023/07/30 08:05:41;;;;;;;11.55;2.45;;;18.20;73.60;;;;;;5074952;27;20055;-73
2023/07/30 08:08:53;;;;;;;10.68;2.35;;;18.20;74.30;;;;;;5076802;27;20104;-75
2023/07/30 08:12:07;;;;;;;7.78;2.20;;;18.30;73.80;;;;;;5118254;27;20488;-74
2023/07/30 08:14:55;;;;;;;9.73;2.28;;;18.30;74.20;;;;;;5117430;27;20059;-74
2023/07/30 08:18:27;;;;;;;8.82;2.28;;;18.40;74.60;;;;;;5129019;27;20047;-75
2023/07/30 08:21:21;;;;;;;9.27;2.10;;;18.50;72.70;;;;;;5116237;27;20141;-75
2023/07/30 08:24:55;;;;;;;10.13;2.15;;;18.70;73.00;;;;;;5115278;27;20179;-75
2023/07/30 08:28:43;;;;;;;7.53;2.13;;;19.10;70.20;;;;;;5121087;27;20095;-74
2023/07/30 08:31:45;;;;;;;10.52;2.20;;;19.20;67.10;;;;;;5135393;27;20088;-74
2023/07/30 08:34:53;;;;;;;9.13;2.20;;;19.30;66.80;;;;;;5103827;27;20046;-75
2023/07/30 08:37:43;;;;;;;12.88;2.50;;;19.40;64.30;;;;;;5117206;27;20158;-75
2023/07/30 08:41:25;;;;;;;12.60;2.33;;;19.30;62.00;;;;;;5121805;27;20051;-74
2023/07/30 08:44:28;;;;;;;12.63;2.40;;;19.20;62.60;;;;;;5128979;27;20059;-75
2023/07/30 08:51:10;;;;;;;8.95;1.90;;;19.30;63.00;;;;;;5136357;27;20169;-75
2023/07/30 08:54:12;;;;;;;11.20;2.70;;;19.70;60.30;;;;;;5135447;27;20587;-73
2023/07/30 08:57:28;;;;;;;9.88;2.10;;;20.00;57.60;;;;;;5079475;28;20052;-74
2023/07/30 09:00:36;;;;;;;6.63;2.08;;;20.30;55.80;;;;;;5080915;28;20226;-74
2023/07/30 09:03:28;;;;;;;11.75;2.17;;;20.40;51.00;;;;;;5047269;28;20048;-74
2023/07/30 09:06:19;;;;;;;6.32;1.77;;;20.60;48.60;;;;;;5078207;28;20055;-74
2023/07/30 09:09:45;;;;;;;6.72;1.80;;;20.70;46.20;;;;;;5064979;28;20058;-74
2023/07/30 09:12:54;;;;;;;8.02;1.92;;;20.90;40.00;;;;;;5078678;28;20052;-75
2023/07/30 09:15:55;;;;;;;7.82;2.28;;;20.70;38.70;;;;;;5061945;28;20171;-75
2023/07/30 09:18:46;;;;;;;8.73;2.20;;;20.30;37.90;;;;;;5078344;28;20048;-75
2023/07/30 09:21:40;;;;;;;9.52;2.30;;;19.50;45.40;;;;;;5062155;28;20044;-74
2023/07/30 09:24:50;;;;;;;11.43;2.17;;;20.00;48.10;;;;;;5078606;28;20140;-75
2023/07/30 09:27:56;;;;;;;10.07;2.47;;;19.90;49.30;;;;;;5105087;27;20558;-75
2023/07/30 09:30:33;;;;;;;8.25;2.20;;;20.00;51.40;;;;;;5122050;27;20039;-76
2023/07/30 09:34:04;;;;;;;6.82;1.80;;;20.40;50.30;;;;;;5134718;27;20038;-74
2023/07/30 09:37:06;;;;;;;7.50;2.05;;;20.80;46.80;;;;;;5076327;27;20130;-74
2023/07/30 09:40:10;;;;;;;9.70;2.05;;;21.00;35.90;;;;;;5120489;27;20428;-74
2023/07/30 09:43:24;;;;;;;6.75;2.05;;;21.00;33.30;;;;;;5134441;27;20034;-74
2023/07/30 09:46:01;;;;;;;11.02;2.65;;;21.00;35.80;;;;;;5102681;27;20066;-74
2023/07/30 09:48:59;;;;;;;9.60;2.53;;;21.20;31.60;;;;;;5113029;27;20061;-75
2023/07/30 09:52:06;;;;;;;8.25;1.98;;;21.10;27.20;;;;;;5132211;27;20035;-74
2023/07/30 09:55:10;;;;;;;8.25;1.90;;;21.40;24.70;;;;;;5136395;27;20046;-76
2023/07/30 09:58:11;;;;;;;9.27;2.20;;;21.40;25.80;;;;;;5135301;27;20121;-75
2023/07/30 10:01:04;;;;;;;9.48;1.92;;;21.40;26.20;;;;;;5117212;27;20342;-75
2023/07/30 10:04:10;;;;;;;7.55;2.03;;;21.20;25.40;;;;;;5117292;27;20042;-73
2023/07/30 10:07:19;;;;;;;12.40;2.72;;;21.30;24.00;;;;;;5118585;27;20150;-74
2023/07/30 10:10:37;;;;;;;7.95;2.28;;;21.30;29.60;;;;;;5132814;27;20090;-74
2023/07/30 10:13:40;;;;;;;8.20;2.05;;;21.50;27.60;;;;;;5116983;27;20054;-74
2023/07/30 10:16:46;;;;;;;9.52;2.25;;;21.30;25.00;;;;;;5090072;27;20051;-75
2023/07/30 10:19:59;;;;;;;12.38;2.45;;;20.90;30.60;;;;;;5135834;27;20043;-76
2023/07/30 10:23:14;;;;;;;8.13;2.30;;;20.80;37.00;;;;;;5135655;27;20055;-73
2023/07/30 10:26:28;;;;;;;8.63;1.98;;;21.20;32.70;;;;;;5133935;27;20042;-73
2023/07/30 10:33:08;;;;;;;8.68;2.30;;;21.80;19.70;;;;;;5131563;27;20121;-76
2023/07/30 10:36:31;;;;;;;5.75;1.88;;;22.20;12.00;;;;;;5105597;27;20061;-75
2023/07/30 10:39:41;;;;;;;7.70;2.20;;;22.40;5.10;;;;;;5104135;27;20051;-75
2023/07/30 10:42:38;;;;;;;8.57;1.90;;;22.30;9.70;;;;;;5132990;27;20050;-75
2023/07/30 10:45:44;;;;;;;9.10;2.35;;;21.80;13.60;;;;;;5105868;27;20047;-73
2023/07/30 10:48:42;;;;;;;7.60;2.00;;;21.40;21.40;;;;;;5136173;27;20039;-74
2023/07/30 10:51:23;;;;;;;10.50;2.10;;;20.90;26.30;;;;;;5114952;27;20054;-73
2023/07/30 10:54:32;;;;;;;9.38;2.10;;;21.10;28.40;;;;;;5134581;27;20166;-74
2023/07/30 10:57:39;;;;;;;7.95;2.60;;;21.20;28.80;;;;;;5132806;27;20046;-75
2023/07/30 11:00:25;;;;;;;9.80;2.20;;;21.50;24.50;;;;;;5135148;27;20491;-73
2023/07/30 11:03:40;;;;;;;10.57;1.98;;;21.40;26.00;;;;;;5095972;27;20051;-73
2023/07/30 11:06:59;;;;;;;11.48;1.88;;;20.90;27.10;;;;;;5116413;27;20591;-72
2023/07/30 11:09:56;;;;;;;8.02;1.88;;;20.90;32.40;;;;;;5135729;27;20047;-74
2023/07/30 11:12:50;;;;;;;7.95;1.95;;;21.50;28.10;;;;;;5135270;27;20051;-74
2023/07/30 11:19:43;;;;;;;7.45;1.42;;;22.40;5.90;;;;;;5134213;27;20085;-75
2023/07/30 11:22:31;;;;;;;7.15;2.25;;;22.40;1.00;;;;;;5117867;27;20134;-76
2023/07/30 11:25:28;;;;;;;8.77;2.15;;;22.40;1.00;;;;;;5116626;27;20082;-74
2023/07/30 11:28:16;;;;;;;8.90;2.33;;;22.60;1.00;;;;;;5076298;27;20050;-74
2023/07/30 11:31:27;;;;;;;9.23;1.90;;;22.80;1.00;;;;;;5075803;27;20051;-74
2023/07/30 11:34:35;;;;;;;6.57;1.75;;;22.80;1.00;;;;;;5104299;28;20056;-75
2023/07/30 11:37:10;;;;;;;6.95;2.03;;;22.70;1.00;;;;;;5088712;28;20106;-75
2023/07/30 11:39:39;;;;;;;6.00;1.58;;;22.20;1.00;;;;;;5074252;28;20047;-75
2023/07/30 11:42:06;;;;;;;5.93;1.73;;;22.60;1.00;;;;;;5086588;28;20057;-73
2023/07/30 11:44:39;;;;;;;7.57;1.80;;;22.50;1.00;;;;;;5084948;28;20911;-73
2023/07/30 11:47:05;;;;;;;8.05;1.60;;;22.50;1.00;;;;;;5072316;28;20221;-74
2023/07/30 11:49:31;;;;;;;9.35;1.95;;;22.50;1.00;;;;;;5102157;28;20058;-74
2023/07/30 11:52:10;;;;;;;9.30;2.17;;;22.70;1.00;;;;;;5092687;28;20055;-74
2023/07/30 11:54:37;;;;;;;5.50;1.58;;;23.00;1.00;;;;;;5071851;27;20043;-75
2023/07/30 11:57:06;;;;;;;5.50;1.75;;;22.70;1.00;;;;;;5057138;27;20070;-75
2023/07/30 11:59:32;;;;;;;9.15;1.90;;;22.90;1.00;;;;;;5073371;27;20055;-73
2023/07/30 12:01:58;;;;;;;6.97;1.98;;;22.90;1.00;;;;;;5118045;27;20059;-77
2023/07/30 12:04:24;;;;;;;6.30;1.65;;;22.70;1.00;;;;;;5097181;27;20161;-75
2023/07/30 12:06:53;;;;;;;11.50;2.25;;;22.60;1.00;;;;;;5098459;27;20127;-74
2023/07/30 12:09:22;;;;;;;6.60;1.67;;;22.40;1.00;;;;;;5111878;27;20065;-74
2023/07/30 12:11:59;;;;;;;7.30;1.52;;;22.30;1.00;;;;;;5111564;27;20486;-73
2023/07/30 12:14:32;;;;;;;6.53;1.70;;;22.10;1.00;;;;;;5111902;27;20078;-76
2023/07/30 12:16:59;;;;;;;9.25;1.95;;;22.90;1.60;;;;;;5095854;27;20078;-74
2023/07/30 12:19:25;;;;;;;6.60;1.98;;;22.40;1.00;;;;;;5111719;27;20054;-75
2023/07/30 12:21:51;;;;;;;6.05;1.80;;;22.40;1.00;;;;;;5097673;27;20055;-73
2023/07/30 12:24:16;;;;;;;7.22;1.85;;;22.20;1.00;;;;;;5096089;27;20058;-75
2023/07/30 12:26:42;;;;;;;9.07;2.15;;;22.10;1.00;;;;;;5066486;27;20043;-74
2023/07/30 12:29:08;;;;;;;10.57;1.98;;;21.80;1.00;;;;;;5098699;27;20038;-76
2023/07/30 12:31:33;;;;;;;6.40;1.83;;;21.90;1.00;;;;;;5102549;27;20043;-76
2023/07/30 12:33:59;;;;;;;6.75;1.95;;;21.80;4.00;;;;;;5113290;27;20310;-74
2023/07/30 12:36:25;;;;;;;5.60;1.90;;;21.60;6.80;;;;;;5111591;27;20094;-77
2023/07/30 12:38:53;;;;;;;8.00;1.70;;;21.50;6.70;;;;;;5109247;27;20178;-74
2023/07/30 12:41:25;;;;;;;6.85;2.00;;;21.50;10.00;;;;;;5110607;27;20063;-73
2023/07/30 12:43:52;;;;;;;7.75;1.80;;;21.40;15.20;;;;;;5111217;27;20508;-76
2023/07/30 12:46:20;;;;;;;4.95;1.58;;;21.30;16.90;;;;;;5109441;27;20078;-71
2023/07/30 12:48:46;;;;;;;5.45;1.70;;;21.00;13.60;;;;;;5065983;27;20050;-74
2023/07/30 12:51:12;;;;;;;8.68;1.90;;;20.90;13.20;;;;;;5097929;27;20055;-74
2023/07/30 12:53:38;;;;;;;6.80;1.98;;;21.10;16.80;;;;;;5094483;27;20052;-74
2023/07/30 12:56:04;;;;;;;7.80;2.00;;;21.20;20.10;;;;;;5099998;27;20572;-76
2023/07/30 12:58:29;;;;;;;6.93;1.80;;;21.20;20.70;;;;;;5111066;27;20121;-74
2023/07/30 13:01:04;;;;;;;7.47;1.58;;;21.30;20.40;;;;;;5095005;27;20054;-76
2023/07/30 13:03:30;;;;;;;10.60;2.17;;;21.60;13.40;;;;;;5109450;27;20042;-72
2023/07/30 13:05:59;;;;;;;5.82;1.90;;;21.90;3.30;;;;;;5100247;27;20054;-74
2023/07/30 13:08:25;;;;;;;9.73;2.35;;;21.90;1.00;;;;;;5100434;27;20049;-73
2023/07/30 13:10:52;;;;;;;7.05;1.60;;;21.90;1.00;;;;;;5109307;27;20580;-73
2023/07/30 13:13:17;;;;;;;7.47;1.48;;;22.10;1.00;;;;;;5110651;27;20042;-74
2023/07/30 13:15:43;;;;;;;6.35;1.60;;;22.50;1.00;;;;;;5080914;27;20096;-73
2023/07/30 13:18:10;;;;;;;5.78;1.60;;;22.80;1.00;;;;;;5092657;27;20062;-73
2023/07/30 13:20:36;;;;;;;7.90;1.60;;;22.80;1.00;;;;;;5083198;27;20047;-72
2023/07/30 13:23:01;;;;;;;8.27;1.80;;;22.80;1.00;;;;;;5095458;27;20389;-73
2023/07/30 13:25:28;;;;;;;5.60;1.35;;;22.90;1.00;;;;;;5091788;27;20508;-72
2023/07/30 13:27:54;;;;;;;5.80;1.50;;;23.90;1.00;;;;;;5109273;27;20046;-74
2023/07/30 13:30:20;;;;;;;5.57;1.75;;;22.80;1.00;;;;;;5111253;27;20179;-72
2023/07/30 13:32:46;;;;;;;5.78;1.80;;;22.70;1.00;;;;;;5078540;27;20115;-72
2023/07/30 13:35:11;;;;;;;8.05;1.90;;;22.20;1.00;;;;;;5106003;27;20114;-73